createdAt,value
2018-05-24T00:00:42.005Z,9.37
2018-05-24T00:03:11.042Z,9.67
2018-05-24T00:05:39.325Z,11.63
2018-05-24T00:08:07.563Z,8.00
2018-05-24T00:10:35.824Z,10.27
2018-05-24T00:13:04.090Z,8.23
2018-05-24T00:15:32.358Z,9.25
2018-05-24T00:18:00.619Z,7.60
2018-05-24T00:20:28.886Z,9.33
2018-05-24T00:22:57.908Z,9.93
2018-05-24T00:25:26.167Z,7.40
2018-05-24T00:27:54.443Z,6.63
2018-05-24T00:30:23.482Z,10.23
2018-05-24T00:32:51.726Z,8.00
2018-05-24T00:35:19.998Z,7.43
2018-05-24T00:37:49.027Z,8.00
2018-05-24T00:40:17.290Z,9.63
2018-05-24T00:42:45.543Z,9.23
2018-05-24T00:45:14.572Z,9.13
2018-05-24T00:47:42.849Z,8.87
2018-05-24T00:50:11.121Z,11.53
2018-05-24T00:52:40.135Z,9.23
2018-05-24T00:55:26.275Z,11.50
2018-05-24T00:57:56.035Z,13.30
2018-05-24T01:00:24.804Z,19.25
2018-05-24T01:02:53.838Z,18.47
2018-05-24T01:05:22.111Z,20.83
2018-05-24T01:07:50.370Z,13.23
2018-05-24T01:10:19.408Z,15.40
2018-05-24T01:12:47.676Z,12.47
2018-05-24T01:15:15.952Z,13.20
2018-05-24T01:17:44.215Z,15.17
2018-05-24T01:20:12.485Z,12.50
2018-05-24T01:22:41.517Z,11.83
2018-05-24T01:25:09.783Z,12.37
2018-05-24T01:27:38.049Z,10.63
2018-05-24T01:30:07.070Z,7.30
2018-05-24T01:32:35.836Z,7.27
2018-05-24T01:35:04.852Z,10.00
2018-05-24T01:37:51.024Z,8.80
2018-05-24T01:40:20.042Z,9.60
2018-05-24T01:42:48.313Z,9.23
2018-05-24T01:45:16.581Z,8.30
2018-05-24T01:47:45.612Z,11.00
2018-05-24T01:50:13.866Z,11.50
2018-05-24T01:52:42.146Z,10.27
2018-05-24T01:55:11.320Z,9.27
2018-05-24T01:57:40.336Z,9.73
2018-05-24T02:00:09.356Z,11.07
2018-05-24T02:02:37.637Z,10.83
2018-05-24T02:05:05.891Z,8.83
2018-05-24T02:07:34.919Z,8.97
2018-05-24T02:10:03.173Z,10.30
2018-05-24T02:12:33.439Z,10.17
2018-05-24T02:15:02.016Z,10.47
2018-05-24T02:17:30.291Z,11.27
2018-05-24T02:19:58.548Z,11.17
2018-05-24T02:22:27.664Z,10.90
2018-05-24T02:24:55.939Z,10.57
2018-05-24T02:27:24.218Z,12.63
2018-05-24T02:29:53.235Z,10.43
2018-05-24T02:32:21.502Z,8.73
2018-05-24T02:34:50.523Z,9.17
2018-05-24T02:37:18.931Z,9.77
2018-05-24T02:39:47.192Z,10.57
2018-05-24T02:42:15.452Z,12.77
2018-05-24T02:44:43.719Z,11.23
2018-05-24T02:47:13.460Z,11.27
2018-05-24T02:49:41.732Z,10.53
2018-05-24T02:52:10.231Z,11.73
2018-05-24T02:54:38.487Z,10.40
2018-05-24T02:57:06.761Z,8.77
2018-05-24T02:59:35.766Z,8.57
2018-05-24T03:02:04.031Z,13.27
2018-05-24T03:04:33.055Z,11.37
2018-05-24T03:07:01.319Z,12.10
2018-05-24T03:09:29.575Z,11.57
2018-05-24T03:11:58.613Z,9.37
2018-05-24T03:14:27.020Z,9.25
2018-05-24T03:16:55.158Z,9.83
2018-05-24T03:19:24.171Z,8.70
2018-05-24T03:21:52.449Z,8.13
2018-05-24T03:24:21.475Z,9.17
2018-05-24T03:26:49.744Z,9.43
2018-05-24T03:29:17.990Z,9.60
2018-05-24T03:31:47.030Z,9.67
2018-05-24T03:34:15.295Z,9.77
2018-05-24T03:36:43.574Z,10.13
2018-05-24T03:39:11.814Z,8.60
2018-05-24T03:41:40.848Z,9.33
2018-05-24T03:44:09.120Z,7.97
2018-05-24T03:46:38.144Z,7.57
2018-05-24T03:49:07.256Z,7.00
2018-05-24T03:51:35.502Z,6.67
2018-05-24T03:54:03.770Z,6.85
2018-05-24T03:56:32.791Z,7.10
2018-05-24T03:59:04.063Z,7.33
2018-05-24T04:01:50.272Z,8.33
2018-05-24T04:04:38.210Z,8.07
2018-05-24T04:07:07.255Z,7.77
2018-05-24T04:09:35.512Z,7.90
2018-05-24T04:12:04.629Z,6.90
2018-05-24T04:14:32.834Z,6.10
2018-05-24T04:17:01.076Z,9.37
2018-05-24T04:19:29.355Z,8.00
2018-05-24T04:21:57.614Z,5.87
2018-05-24T04:24:26.654Z,6.50
2018-05-24T04:26:54.913Z,6.57
2018-05-24T04:29:23.928Z,7.40
2018-05-24T04:31:52.191Z,7.50
2018-05-24T04:34:20.463Z,7.43
2018-05-24T04:36:49.583Z,7.27
2018-05-24T04:39:17.856Z,8.27
2018-05-24T04:41:46.107Z,7.63
2018-05-24T04:44:15.147Z,7.50
2018-05-24T04:46:43.410Z,8.63
2018-05-24T04:49:12.439Z,8.30
2018-05-24T04:51:40.719Z,7.73
2018-05-24T04:54:08.982Z,7.55
2018-05-24T04:56:37.242Z,6.83
2018-05-24T04:59:06.275Z,6.27
2018-05-24T05:01:34.590Z,7.67
2018-05-24T05:04:03.512Z,7.50
2018-05-24T05:06:32.543Z,7.23
2018-05-24T05:09:00.808Z,7.23
2018-05-24T05:11:29.064Z,7.10
2018-05-24T05:13:58.093Z,7.60
2018-05-24T05:16:26.344Z,8.57
2018-05-24T05:18:55.379Z,7.50
2018-05-24T05:21:23.656Z,6.27
2018-05-24T05:23:51.920Z,8.33
2018-05-24T05:26:20.943Z,6.27
2018-05-24T05:28:49.207Z,6.27
2018-05-24T05:31:17.455Z,6.03
2018-05-24T05:33:46.495Z,7.50
2018-05-24T05:36:14.741Z,6.00
2018-05-24T05:38:43.768Z,6.20
2018-05-24T05:41:12.015Z,8.57
2018-05-24T05:43:41.051Z,6.17
2018-05-24T05:46:09.305Z,8.43
2018-05-24T05:48:39.767Z,9.20
2018-05-24T05:51:08.045Z,11.07
2018-05-24T05:53:36.312Z,11.93
2018-05-24T05:56:04.567Z,7.73
2018-05-24T05:58:33.604Z,8.20
2018-05-24T06:01:01.867Z,8.03
2018-05-24T06:03:30.138Z,6.70
2018-05-24T06:05:59.161Z,6.47
2018-05-24T06:08:27.426Z,6.90
2018-05-24T06:10:56.459Z,7.47
2018-05-24T06:13:24.816Z,6.73
2018-05-24T06:15:53.076Z,6.25
2018-05-24T06:18:22.111Z,9.70
2018-05-24T06:20:50.361Z,6.17
2018-05-24T06:23:19.382Z,6.40
2018-05-24T06:25:47.651Z,6.57
2018-05-24T06:28:16.666Z,7.30
2018-05-24T06:30:44.924Z,5.87
2018-05-24T06:33:13.176Z,7.10
2018-05-24T06:35:42.209Z,5.33
2018-05-24T06:38:10.469Z,6.60
2018-05-24T06:40:39.621Z,5.77
2018-05-24T06:43:07.762Z,7.93
2018-05-24T06:45:36.023Z,5.80
2018-05-24T06:48:05.266Z,6.63
2018-05-24T06:50:33.525Z,6.00
2018-05-24T06:53:02.533Z,4.50
2018-05-24T06:55:30.811Z,4.27
2018-05-24T06:57:59.073Z,5.15
2018-05-24T07:00:28.101Z,4.47
2018-05-24T07:02:56.359Z,4.83
2018-05-24T07:05:24.635Z,6.73
2018-05-24T07:07:53.660Z,4.63
2018-05-24T07:10:21.916Z,5.17
2018-05-24T07:12:50.186Z,4.87
2018-05-24T07:15:19.219Z,5.97
2018-05-24T07:17:47.475Z,5.47
2018-05-24T07:20:16.529Z,5.80
2018-05-24T07:22:44.855Z,4.90
2018-05-24T07:25:14.466Z,14.00
2018-05-24T07:27:42.727Z,17.00
2018-05-24T07:30:10.987Z,7.73
2018-05-24T07:32:40.020Z,5.70
2018-05-24T07:35:09.067Z,6.60
2018-05-24T07:37:37.365Z,8.77
2018-05-24T07:40:05.574Z,5.35
2018-05-24T07:42:34.597Z,6.27
2018-05-24T07:45:02.876Z,7.63
2018-05-24T07:47:31.967Z,7.17
2018-05-24T07:50:00.235Z,7.97
2018-05-24T07:52:29.262Z,8.73
2018-05-24T07:54:57.543Z,6.90
2018-05-24T07:57:25.777Z,6.90
2018-05-24T07:59:54.813Z,7.55
2018-05-24T08:02:23.130Z,8.23
2018-05-24T08:04:51.400Z,7.13
2018-05-24T08:07:19.655Z,7.22
2018-05-24T08:09:47.924Z,7.30
2018-05-24T08:12:16.946Z,9.65
2018-05-24T08:14:45.244Z,8.10
2018-05-24T08:17:14.222Z,8.52
2018-05-24T08:19:42.494Z,7.80
2018-05-24T08:22:10.764Z,7.50
2018-05-24T08:24:39.043Z,8.57
2018-05-24T08:27:07.319Z,10.40
2018-05-24T08:29:37.595Z,8.40
2018-05-24T08:32:05.861Z,7.80
2018-05-24T08:34:34.131Z,9.07
2018-05-24T08:37:02.390Z,8.45
2018-05-24T08:39:30.643Z,8.37
2018-05-24T08:41:59.677Z,8.68
2018-05-24T08:44:27.936Z,8.07
2018-05-24T08:46:57.107Z,11.83
2018-05-24T08:49:25.361Z,8.38
2018-05-24T08:51:53.628Z,8.73
2018-05-24T08:54:21.887Z,8.13
2018-05-24T08:56:50.161Z,8.63
2018-05-24T08:59:19.183Z,7.68
2018-05-24T09:01:47.450Z,9.07
2018-05-24T09:04:15.707Z,9.33
2018-05-24T09:06:44.740Z,7.70
2018-05-24T09:09:12.990Z,8.48
2018-05-24T09:11:42.019Z,8.82
2018-05-24T09:14:10.290Z,8.32
2018-05-24T09:16:38.555Z,10.27
2018-05-24T09:19:07.578Z,10.27
2018-05-24T09:21:36.123Z,7.65
2018-05-24T09:24:05.151Z,8.13
2018-05-24T09:26:33.427Z,8.03
2018-05-24T09:29:02.468Z,8.37
2018-05-24T09:31:30.726Z,7.87
2018-05-24T09:33:58.984Z,9.38
2018-05-24T09:36:28.019Z,8.13
2018-05-24T09:38:56.277Z,7.97
2018-05-24T09:41:24.547Z,8.18
2018-05-24T09:43:52.798Z,7.70
2018-05-24T09:46:21.838Z,8.40
2018-05-24T09:48:50.088Z,8.83
2018-05-24T09:51:19.117Z,8.70
2018-05-24T09:53:48.279Z,8.96
2018-05-24T09:56:17.306Z,8.88
2018-05-24T09:58:45.559Z,7.83
2018-05-24T10:01:14.590Z,9.17
2018-05-24T10:03:42.845Z,7.45
2018-05-24T10:06:11.875Z,7.85
2018-05-24T10:08:40.136Z,9.25
2018-05-24T10:11:09.455Z,8.83
2018-05-24T10:13:37.711Z,7.54
2018-05-24T10:16:07.440Z,8.15
2018-05-24T10:18:35.927Z,8.80
2018-05-24T10:21:04.175Z,6.57
2018-05-24T10:23:33.231Z,6.90
2018-05-24T10:26:01.466Z,7.80
2018-05-24T10:28:30.495Z,6.47
2018-05-24T10:30:58.754Z,10.07
2018-05-24T10:33:27.011Z,7.23
2018-05-24T10:35:56.850Z,6.15
2018-05-24T10:38:25.873Z,9.30
2018-05-24T10:40:54.131Z,6.70
2018-05-24T10:43:23.169Z,5.80
2018-05-24T10:45:51.428Z,5.70
2018-05-24T10:48:19.687Z,5.25
2018-05-24T10:50:47.959Z,4.68
2018-05-24T10:53:16.999Z,6.83
2018-05-24T10:55:45.987Z,6.30
2018-05-24T10:58:14.250Z,5.85
2018-05-24T11:00:42.546Z,6.12
2018-05-24T11:03:10.862Z,5.20
2018-05-24T11:05:39.074Z,4.70
2018-05-24T11:08:08.100Z,4.95
2018-05-24T11:10:36.362Z,6.20
2018-05-24T11:13:05.391Z,6.10
2018-05-24T11:15:33.664Z,5.93
2018-05-24T11:18:01.928Z,5.20
2018-05-24T11:20:30.938Z,4.54
2018-05-24T11:22:59.192Z,5.85
2018-05-24T11:25:28.223Z,6.53
2018-05-24T11:27:56.493Z,4.87
2018-05-24T11:30:24.747Z,5.32
2018-05-24T11:32:53.763Z,7.62
2018-05-24T11:35:22.351Z,6.57
2018-05-24T11:37:50.598Z,4.77
2018-05-24T11:40:19.618Z,4.45
2018-05-24T11:42:48.651Z,6.57
2018-05-24T11:45:16.898Z,5.67
2018-05-24T11:47:45.927Z,5.03
2018-05-24T11:50:14.179Z,6.03
2018-05-24T11:52:44.241Z,5.28
2018-05-24T11:55:12.499Z,5.53
2018-05-24T11:57:40.752Z,5.30
2018-05-24T12:00:09.783Z,4.57
2018-05-24T12:02:38.043Z,5.10
2018-05-24T12:05:07.055Z,4.15
2018-05-24T12:07:35.319Z,3.90
2018-05-24T12:10:03.572Z,4.87
2018-05-24T12:12:32.614Z,4.63
2018-05-24T12:15:02.670Z,4.60
2018-05-24T12:17:30.921Z,3.35
2018-05-24T12:19:59.175Z,4.33
2018-05-24T12:22:28.199Z,5.77
2018-05-24T12:24:56.469Z,5.07
2018-05-24T12:27:24.726Z,6.18
2018-05-24T12:29:53.750Z,4.35
2018-05-24T12:32:22.014Z,4.73
2018-05-24T12:34:50.285Z,5.22
2018-05-24T12:37:19.321Z,4.05
2018-05-24T12:39:47.599Z,5.25
2018-05-24T12:42:15.873Z,4.43
2018-05-24T12:44:44.124Z,4.13
2018-05-24T12:47:14.395Z,6.03
2018-05-24T12:49:42.648Z,4.75
2018-05-24T12:52:10.911Z,4.57
2018-05-24T12:54:40.059Z,3.97
2018-05-24T12:57:09.043Z,3.83
2018-05-24T12:59:37.314Z,3.75
2018-05-24T13:02:05.583Z,4.32
2018-05-24T13:04:33.899Z,3.50
2018-05-24T13:07:02.872Z,3.85
2018-05-24T13:09:31.118Z,3.85
2018-05-24T13:12:00.204Z,4.85
2018-05-24T13:14:28.399Z,4.07
2018-05-24T13:16:57.481Z,3.80
2018-05-24T13:19:28.084Z,7.62
2018-05-24T13:21:56.346Z,4.40
2018-05-24T13:24:24.712Z,5.43
2018-05-24T13:26:52.895Z,5.57
2018-05-24T13:29:21.171Z,4.28
2018-05-24T13:31:50.274Z,5.35
2018-05-24T13:34:18.551Z,4.40
2018-05-24T13:36:47.575Z,6.03
2018-05-24T13:39:15.991Z,5.15
2018-05-24T13:41:44.239Z,4.15
2018-05-24T13:44:12.513Z,4.80
2018-05-24T13:46:40.766Z,4.47
2018-05-24T13:49:09.789Z,5.07
2018-05-24T13:51:38.666Z,4.64
2018-05-24T13:54:07.691Z,4.20
2018-05-24T13:56:35.954Z,4.00
2018-05-24T13:59:04.216Z,5.43
2018-05-24T14:01:33.245Z,5.37
2018-05-24T14:04:01.503Z,4.82
2018-05-24T14:06:30.527Z,4.50
2018-05-24T14:08:58.817Z,4.67
2018-05-24T14:11:27.075Z,4.53
2018-05-24T14:13:55.342Z,7.45
2018-05-24T14:16:23.599Z,6.05
2018-05-24T14:18:52.940Z,6.93
2018-05-24T14:21:21.210Z,5.30
2018-05-24T14:23:50.707Z,6.47
2018-05-24T14:26:19.746Z,5.65
2018-05-24T14:28:48.012Z,4.67
2018-05-24T14:31:16.274Z,4.83
2018-05-24T14:33:45.605Z,5.25
2018-05-24T14:36:13.864Z,5.07
2018-05-24T14:38:42.118Z,5.90
2018-05-24T14:41:11.151Z,5.73
2018-05-24T14:43:39.404Z,5.25
2018-05-24T14:46:08.518Z,6.05
2018-05-24T14:48:37.555Z,6.57
2018-05-24T14:51:05.815Z,7.20
2018-05-24T14:53:34.078Z,8.85
2018-05-24T14:56:02.350Z,6.97
2018-05-24T14:58:31.367Z,5.50
2018-05-24T15:00:59.631Z,5.43
2018-05-24T15:03:28.662Z,5.60
2018-05-24T15:05:56.927Z,5.03
2018-05-24T15:08:25.198Z,5.57
2018-05-24T15:10:54.211Z,5.40
2018-05-24T15:16:32.207Z,6.37
2018-05-24T15:19:00.467Z,4.47
2018-05-24T15:21:29.495Z,4.10
2018-05-24T15:23:57.751Z,4.62
2018-05-24T15:26:26.882Z,4.57
2018-05-24T15:28:55.156Z,5.97
2018-05-24T15:31:23.420Z,6.05
2018-05-24T15:33:51.715Z,5.43
2018-05-24T15:36:20.723Z,5.25
2018-05-24T15:38:48.995Z,9.30
2018-05-24T15:41:17.258Z,4.68
2018-05-24T15:43:46.255Z,7.20
2018-05-24T15:46:15.280Z,5.15
2018-05-24T15:48:43.532Z,5.67
2018-05-24T15:51:12.563Z,6.33
2018-05-24T15:53:40.811Z,5.05
2018-05-24T15:56:09.099Z,4.97
2018-05-24T15:58:37.366Z,5.33
2018-05-24T16:01:06.390Z,8.53
2018-05-24T16:03:34.641Z,4.82
2018-05-24T16:06:03.763Z,4.95
2018-05-24T16:08:32.028Z,6.93
2018-05-24T16:11:01.058Z,5.62
2018-05-24T16:13:29.311Z,5.17
2018-05-24T16:15:59.034Z,4.74
2018-05-24T16:18:27.285Z,5.07
2018-05-24T16:20:56.318Z,6.03
2018-05-24T16:23:24.566Z,4.95
2018-05-24T16:25:53.631Z,6.10
2018-05-24T16:28:21.963Z,5.72
2018-05-24T16:30:50.233Z,6.87
2018-05-24T16:33:19.258Z,5.30
2018-05-24T16:35:47.520Z,5.43
2018-05-24T16:38:15.787Z,5.10
2018-05-24T16:40:44.811Z,6.12
2018-05-24T16:43:13.058Z,6.70
2018-05-24T16:45:41.327Z,5.70
2018-05-24T16:48:09.583Z,4.90
2018-05-24T16:50:37.849Z,5.45
2018-05-24T16:53:06.098Z,5.50
2018-05-24T16:55:35.135Z,6.03
2018-05-24T16:58:03.378Z,6.25
2018-05-24T17:00:31.685Z,5.78
2018-05-24T17:03:00.676Z,8.33
2018-05-24T17:05:28.940Z,7.90
2018-05-24T17:07:57.203Z,10.93
2018-05-24T17:10:26.238Z,5.70
2018-05-24T17:12:54.492Z,6.82
2018-05-24T17:15:23.514Z,6.00
2018-05-24T17:17:51.766Z,5.40
2018-05-24T17:20:20.826Z,8.46
2018-05-24T17:22:49.095Z,8.55
2018-05-24T17:25:17.354Z,5.93
2018-05-24T17:27:45.621Z,6.40
2018-05-24T17:30:13.883Z,5.75
2018-05-24T17:32:42.903Z,6.00
2018-05-24T17:35:11.172Z,8.03
2018-05-24T17:37:39.430Z,7.65
2018-05-24T17:40:08.605Z,8.95
2018-05-24T17:42:36.876Z,14.15
2018-05-24T17:45:05.143Z,10.30
2018-05-24T17:47:33.413Z,6.90
2018-05-24T17:50:01.683Z,7.25
2018-05-24T17:52:29.932Z,6.47
2018-05-24T17:54:58.964Z,7.30
2018-05-24T17:57:27.235Z,7.03
2018-05-24T17:59:55.512Z,7.07
2018-05-24T18:02:25.779Z,6.93
2018-05-24T18:04:54.039Z,8.60
2018-05-24T18:07:22.301Z,7.43
2018-05-24T18:09:50.562Z,9.00
2018-05-24T18:12:18.830Z,8.40
2018-05-24T18:14:48.607Z,7.82
2018-05-24T18:17:17.054Z,12.57
2018-05-24T18:19:46.063Z,7.93
2018-05-24T18:22:14.332Z,7.78
2018-05-24T18:24:43.364Z,7.18
2018-05-24T18:27:11.684Z,6.62
2018-05-24T18:29:39.884Z,9.30
2018-05-24T18:32:08.997Z,7.33
2018-05-24T18:34:37.995Z,7.54
2018-05-24T18:37:06.269Z,11.77
2018-05-24T18:39:35.303Z,8.10
2018-05-24T18:42:03.572Z,8.00
2018-05-24T18:44:31.823Z,8.75
2018-05-24T18:47:00.854Z,7.65
2018-05-24T18:49:29.111Z,8.27
2018-05-24T18:51:58.138Z,8.50
2018-05-24T18:54:26.394Z,7.85
2018-05-24T18:56:54.676Z,8.70
2018-05-24T18:59:22.926Z,8.27
2018-05-24T19:01:51.955Z,7.90
2018-05-24T19:04:20.211Z,8.65
2018-05-24T19:06:50.485Z,7.97
2018-05-24T19:09:18.768Z,8.47
2018-05-24T19:11:47.035Z,8.03
2018-05-24T19:14:15.288Z,8.45
2018-05-24T19:16:44.401Z,8.23
2018-05-24T19:19:12.658Z,8.37
2018-05-24T19:21:41.688Z,9.23
2018-05-24T19:24:09.944Z,7.37
2018-05-24T19:26:38.977Z,9.77
2018-05-24T19:29:07.235Z,9.35
2018-05-24T19:31:35.502Z,8.03
2018-05-24T19:34:04.531Z,9.27
2018-05-24T19:36:32.786Z,9.60
2018-05-24T19:39:01.821Z,11.30
2018-05-24T19:41:30.075Z,8.90
2018-05-24T19:43:58.349Z,6.07
2018-05-24T19:46:27.367Z,7.93
2018-05-24T19:48:56.243Z,4.40
2018-05-24T19:51:24.523Z,5.43
2018-05-24T19:53:53.547Z,3.45
2018-05-24T19:56:21.808Z,3.23
2018-05-24T19:58:50.088Z,5.17
2018-05-24T20:01:19.118Z,2.97
2018-05-24T20:03:47.462Z,4.77
2018-05-24T20:06:15.723Z,3.07
2018-05-24T20:08:44.747Z,2.70
2018-05-24T20:11:13.022Z,2.73
2018-05-24T20:13:41.295Z,2.47
2018-05-24T20:16:10.327Z,1.97
2018-05-24T20:18:38.601Z,2.37
2018-05-24T20:21:07.876Z,3.05
2018-05-24T20:23:36.907Z,2.53
2018-05-24T20:26:05.168Z,1.50
2018-05-24T20:28:33.445Z,1.80
2018-05-24T20:31:01.753Z,1.40
2018-05-24T20:33:30.013Z,1.63
2018-05-24T20:35:58.283Z,1.60
2018-05-24T20:38:27.299Z,2.05
2018-05-24T20:40:55.572Z,1.40
2018-05-24T20:43:23.850Z,1.37
2018-05-24T20:45:52.137Z,3.28
2018-05-24T20:48:20.406Z,2.13
2018-05-24T20:50:49.419Z,2.43
2018-05-24T20:53:18.201Z,2.27
2018-05-24T20:55:46.470Z,1.63
2018-05-24T20:58:15.496Z,1.20
2018-05-24T21:00:43.783Z,4.00
2018-05-24T21:03:12.027Z,4.03
2018-05-24T21:05:41.053Z,2.13
2018-05-24T21:08:09.303Z,2.25
2018-05-24T21:10:38.337Z,2.60
2018-05-24T21:13:06.600Z,3.50
2018-05-24T21:15:35.467Z,5.87
2018-05-24T21:18:04.499Z,3.37
2018-05-24T21:20:32.747Z,4.03
2018-05-24T21:23:01.778Z,2.13
2018-05-24T21:25:30.033Z,3.20
2018-05-24T21:27:59.063Z,2.83
2018-05-24T21:30:27.373Z,3.03
2018-05-24T21:32:55.605Z,3.07
2018-05-24T21:35:24.698Z,1.73
2018-05-24T21:37:53.781Z,2.00
2018-05-24T21:40:21.997Z,1.93
2018-05-24T21:42:50.263Z,3.13
2018-05-24T21:45:18.532Z,2.03
2018-05-24T21:47:47.567Z,3.07
2018-05-24T21:50:15.821Z,2.17
2018-05-24T21:52:45.126Z,3.23
2018-05-24T21:55:13.378Z,2.23
2018-05-24T21:57:42.879Z,3.53
2018-05-24T22:00:11.902Z,2.83
2018-05-24T22:02:40.949Z,1.87
2018-05-24T22:05:09.216Z,2.70
2018-05-24T22:07:37.481Z,1.70
2018-05-24T22:10:05.743Z,4.10
2018-05-24T22:12:34.775Z,3.25
2018-05-24T22:15:03.059Z,5.83
2018-05-24T22:17:31.307Z,4.10
2018-05-24T22:20:00.343Z,2.73
2018-05-24T22:22:28.588Z,2.10
2018-05-24T22:24:56.861Z,5.10
2018-05-24T22:27:25.893Z,1.90
2018-05-24T22:29:54.951Z,2.97
2018-05-24T22:32:23.978Z,2.97
2018-05-24T22:34:52.239Z,2.57
2018-05-24T22:37:21.256Z,4.13
2018-05-24T22:39:49.511Z,2.80
2018-05-24T22:42:18.538Z,2.33
2018-05-24T22:44:46.793Z,3.93
2018-05-24T22:47:15.807Z,1.83
2018-05-24T22:49:44.075Z,2.57
2018-05-24T22:52:12.890Z,2.50
2018-05-24T22:54:41.170Z,2.67
2018-05-24T22:57:09.447Z,2.87
2018-05-24T22:59:37.732Z,4.33
2018-05-24T23:02:06.558Z,2.12
2018-05-24T23:04:34.806Z,4.93
2018-05-24T23:07:03.059Z,2.12
2018-05-24T23:09:32.093Z,2.70
2018-05-24T23:12:00.343Z,5.53
2018-05-24T23:14:29.381Z,2.83
2018-05-24T23:16:57.618Z,3.23
2018-05-24T23:19:26.646Z,4.80
2018-05-24T23:21:54.902Z,3.13
2018-05-24T23:24:23.177Z,4.63
2018-05-24T23:26:52.215Z,2.77
2018-05-24T23:29:20.567Z,4.73
2018-05-24T23:31:48.831Z,2.90
2018-05-24T23:34:19.108Z,2.30
2018-05-24T23:36:47.363Z,3.10
2018-05-24T23:39:15.630Z,2.13
2018-05-24T23:41:43.917Z,3.60
2018-05-24T23:44:13.646Z,3.40
2018-05-24T23:46:41.928Z,2.57
2018-05-24T23:49:10.176Z,3.33
2018-05-24T23:51:39.199Z,3.73
2018-05-24T23:54:07.463Z,4.10
2018-05-24T23:56:35.730Z,3.43
2018-05-24T23:59:04.757Z,4.53
